createdAt,value
2018-10-16T00:00:32.567Z,14.09
2018-10-16T00:01:42.620Z,14.07
2018-10-16T00:02:52.998Z,14.04
2018-10-16T00:04:02.803Z,14.06
2018-10-16T00:05:12.610Z,13.97
2018-10-16T00:06:22.882Z,14.02
2018-10-16T00:07:32.924Z,14.06
2018-10-16T00:08:42.949Z,13.92
2018-10-16T00:09:52.420Z,14
2018-10-16T00:11:02.440Z,14.04
2018-10-16T00:12:12.208Z,13.96
2018-10-16T00:13:22.551Z,13.96
2018-10-16T00:14:32.552Z,13.97
2018-10-16T00:15:42.287Z,14.02
2018-10-16T00:16:52.021Z,14
2018-10-16T00:18:02.330Z,13.99
2018-10-16T00:19:12.388Z,14
2018-10-16T00:20:22.145Z,13.92
2018-10-16T00:21:32.162Z,13.99
2018-10-16T00:22:42.175Z,13.99
2018-10-16T00:23:52.239Z,14.04
2018-10-16T00:25:01.997Z,14
2018-10-16T00:26:11.768Z,13.95
2018-10-16T00:27:21.822Z,14.02
2018-10-16T00:28:31.846Z,14.04
2018-10-16T00:29:41.604Z,13.97
2018-10-16T00:30:51.061Z,13.97
2018-10-16T00:32:01.401Z,13.95
2018-10-16T00:33:11.427Z,13.97
2018-10-16T00:34:21.743Z,13.99
2018-10-16T00:35:31.477Z,13.95
2018-10-16T00:36:41.516Z,13.99
2018-10-16T00:37:51.543Z,13.92
2018-10-16T00:39:01.286Z,14
2018-10-16T00:40:11.315Z,14.02
2018-10-16T00:41:20.771Z,14
2018-10-16T00:42:30.806Z,13.96
2018-10-16T00:43:40.568Z,13.92
2018-10-16T00:44:50.319Z,13.97
2018-10-16T00:46:00.100Z,13.96
2018-10-16T00:47:09.839Z,14
2018-10-16T00:48:19.843Z,13.97
2018-10-16T00:49:29.299Z,14.03
2018-10-16T00:50:39.036Z,14
2018-10-16T00:51:48.768Z,14.02
2018-10-16T00:52:58.796Z,14.04
2018-10-16T00:54:08.246Z,14.02
2018-10-16T00:55:18.269Z,14
2018-10-16T00:56:28.009Z,14.02
2018-10-16T00:57:38.042Z,14
2018-10-16T00:58:48.368Z,14.03
2018-10-16T00:59:58.398Z,14
2018-10-16T01:01:07.872Z,13.99
2018-10-16T01:02:17.955Z,13.96
2018-10-16T01:03:27.411Z,13.99
2018-10-16T01:04:37.151Z,13.96
2018-10-16T01:05:47.168Z,13.97
2018-10-16T01:06:57.249Z,14.02
2018-10-16T01:08:07.601Z,14.03
2018-10-16T01:09:17.094Z,14.04
2018-10-16T01:10:26.838Z,14.06
2018-10-16T01:11:36.594Z,13.99
2018-10-16T01:12:46.645Z,14.09
2018-10-16T01:13:56.377Z,14.04
2018-10-16T01:15:06.146Z,14.04
2018-10-16T01:16:16.451Z,14
2018-10-16T01:17:26.185Z,14.06
2018-10-16T01:18:35.922Z,14.04
2018-10-16T01:19:45.981Z,14.04
2018-10-16T01:20:56.312Z,14.06
2018-10-16T01:22:06.325Z,14.07
2018-10-16T01:23:16.090Z,14.04
2018-10-16T01:24:25.826Z,14.06
2018-10-16T01:25:35.859Z,14
2018-10-16T01:26:45.998Z,14.09
2018-10-16T01:27:56.043Z,14.07
2018-10-16T01:29:06.373Z,14
2018-10-16T01:30:16.139Z,14.07
2018-10-16T01:31:26.487Z,14.09
2018-10-16T01:32:36.519Z,14.07
2018-10-16T01:33:46.532Z,14.07
2018-10-16T01:34:56.897Z,14.06
2018-10-16T01:36:06.936Z,14.1
2018-10-16T01:37:16.981Z,14.09
2018-10-16T01:38:27.041Z,14.09
2018-10-16T01:39:37.372Z,14.12
2018-10-16T01:40:47.387Z,14.18
2018-10-16T01:41:56.854Z,14.15
2018-10-16T01:43:06.871Z,14.06
2018-10-16T01:44:16.633Z,14.15
2018-10-16T01:45:26.384Z,14.12
2018-10-16T01:46:36.156Z,14.09
2018-10-16T01:47:46.181Z,14.1
2018-10-16T01:48:55.940Z,14.14
2018-10-16T01:50:05.960Z,14.17
2018-10-16T01:51:15.421Z,14.18
2018-10-16T01:52:25.192Z,14.18
2018-10-16T01:53:35.219Z,14.21
2018-10-16T01:54:45.528Z,14.24
2018-10-16T01:55:55.311Z,14.21
2018-10-16T01:57:05.332Z,14.2
2018-10-16T01:58:15.345Z,14.18
2018-10-16T01:59:25.433Z,14.21
2018-10-16T02:00:35.147Z,14.25
2018-10-16T02:01:45.172Z,14.25
2018-10-16T02:02:55.208Z,14.27
2018-10-16T02:04:05.250Z,14.27
2018-10-16T02:05:14.995Z,14.25
2018-10-16T02:06:25.313Z,14.27
2018-10-16T02:07:35.347Z,14.29
2018-10-16T02:08:45.389Z,14.28
2018-10-16T02:09:55.165Z,14.29
2018-10-16T02:11:05.199Z,14.35
2018-10-16T02:12:15.220Z,14.37
2018-10-16T02:13:25.025Z,14.28
2018-10-16T02:14:35.072Z,14.28
2018-10-16T02:15:44.820Z,14.29
2018-10-16T02:16:54.569Z,14.25
2018-10-16T02:18:04.612Z,14.25
2018-10-16T02:19:14.634Z,14.28
2018-10-16T02:20:24.936Z,14.32
2018-10-16T02:21:34.702Z,14.37
2018-10-16T02:22:45.026Z,14.32
2018-10-16T02:23:54.782Z,14.32
2018-10-16T02:25:04.591Z,14.33
2018-10-16T02:26:14.915Z,14.35
2018-10-16T02:27:25.255Z,14.32
2018-10-16T02:28:35.578Z,14.33
2018-10-16T02:29:45.630Z,14.35
2018-10-16T02:30:55.126Z,14.28
2018-10-16T02:32:05.185Z,14.37
2018-10-16T02:33:15.304Z,14.37
2018-10-16T02:34:25.620Z,14.32
2018-10-16T02:35:35.110Z,14.42
2018-10-16T02:36:44.873Z,14.39
2018-10-16T02:37:54.903Z,14.32
2018-10-16T02:39:05.230Z,14.42
2018-10-16T02:40:15.344Z,14.5
2018-10-16T02:41:25.101Z,14.46
2018-10-16T02:42:34.908Z,14.42
2018-10-16T02:43:44.949Z,14.5
2018-10-16T02:44:54.422Z,14.45
2018-10-16T02:46:03.877Z,14.45
2018-10-16T02:47:13.974Z,14.5
2018-10-16T02:48:24.314Z,14.47
2018-10-16T02:49:34.434Z,14.46
2018-10-16T02:50:44.457Z,14.5
2018-10-16T02:51:54.514Z,14.5
2018-10-16T02:53:03.988Z,14.5
2018-10-16T02:54:14.043Z,14.45
2018-10-16T02:55:23.829Z,14.46
2018-10-16T02:56:33.853Z,14.47
2018-10-16T02:57:43.625Z,14.43
2018-10-16T02:58:53.077Z,14.46
2018-10-16T03:00:03.140Z,14.5
2018-10-16T03:01:13.203Z,14.51
2018-10-16T03:02:23.518Z,14.47
2018-10-16T03:03:33.569Z,14.47
2018-10-16T03:04:43.903Z,14.5
2018-10-16T03:05:53.428Z,14.54
2018-10-16T03:07:03.175Z,14.47
2018-10-16T03:08:13.200Z,14.54
2018-10-16T03:09:22.975Z,14.54
2018-10-16T03:10:32.752Z,14.55
2018-10-16T03:11:42.516Z,14.55
2018-10-16T03:12:52.577Z,14.57
2018-10-16T03:14:02.595Z,14.55
2018-10-16T03:15:12.915Z,14.5
2018-10-16T03:16:22.683Z,14.51
2018-10-16T03:17:32.758Z,14.52
2018-10-16T03:18:42.507Z,14.54
2018-10-16T03:19:51.669Z,14.5
2018-10-16T03:21:00.857Z,14.51
2018-10-16T03:22:10.615Z,14.45
2018-10-16T03:23:20.649Z,14.52
2018-10-16T03:24:30.142Z,14.58
2018-10-16T03:25:40.473Z,14.52
2018-10-16T03:26:50.511Z,14.57
2018-10-16T03:28:00.279Z,14.58
2018-10-16T03:29:10.609Z,14.55
2018-10-16T03:30:20.362Z,14.52
2018-10-16T03:31:30.148Z,14.57
2018-10-16T03:32:40.471Z,14.52
2018-10-16T03:33:50.226Z,14.52
2018-10-16T03:34:59.706Z,14.54
2018-10-16T03:36:09.461Z,14.58
2018-10-16T03:37:19.229Z,14.54
2018-10-16T03:38:29.273Z,14.55
2018-10-16T03:39:39.305Z,14.55
2018-10-16T03:40:49.043Z,14.52
2018-10-16T03:41:59.099Z,14.46
2018-10-16T03:43:08.846Z,14.51
2018-10-16T03:44:19.148Z,14.54
2018-10-16T03:45:29.201Z,14.61
2018-10-16T03:46:39.526Z,14.46
2018-10-16T03:47:50.139Z,14.62
2018-10-16T03:49:00.167Z,14.62
2018-10-16T03:50:10.216Z,14.54
2018-10-16T03:51:19.683Z,14.57
2018-10-16T03:52:29.446Z,14.54
2018-10-16T03:53:39.503Z,14.54
2018-10-16T03:54:49.245Z,14.57
2018-10-16T03:55:59.555Z,14.61
2018-10-16T03:57:09.649Z,14.68
2018-10-16T03:58:19.993Z,14.54
2018-10-16T03:59:29.751Z,14.55
2018-10-16T04:00:39.773Z,14.6
2018-10-16T04:01:50.074Z,14.64
2018-10-16T04:02:59.824Z,14.61
2018-10-16T04:04:09.578Z,14.55
2018-10-16T04:05:19.614Z,14.58
2018-10-16T04:06:29.651Z,14.65
2018-10-16T04:07:39.381Z,14.6
2018-10-16T04:08:49.075Z,14.54
2018-10-16T04:09:58.733Z,14.54
2018-10-16T04:11:08.113Z,14.52
2018-10-16T04:12:18.050Z,14.6
2018-10-16T04:13:27.950Z,14.62
2018-10-16T04:14:37.881Z,14.65
2018-10-16T04:15:47.554Z,14.58
2018-10-16T04:16:57.194Z,14.68
2018-10-16T04:18:07.083Z,14.65
2018-10-16T04:19:16.986Z,14.55
2018-10-16T04:20:26.602Z,14.61
2018-10-16T04:21:36.859Z,14.57
2018-10-16T04:22:46.623Z,14.54
2018-10-16T04:23:56.630Z,14.7
2018-10-16T04:25:06.583Z,14.65
2018-10-16T04:26:16.748Z,14.65
2018-10-16T04:27:26.928Z,14.64
2018-10-16T04:28:36.545Z,14.61
2018-10-16T04:29:46.159Z,14.68
2018-10-16T04:30:56.055Z,14.52
2018-10-16T04:32:05.399Z,14.64
2018-10-16T04:33:15.560Z,14.5
2018-10-16T04:34:25.475Z,14.5
2018-10-16T04:35:34.538Z,14.64
2018-10-16T04:36:44.159Z,14.68
2018-10-16T04:37:54.044Z,14.68
2018-10-16T04:39:03.942Z,14.65
2018-10-16T04:40:13.841Z,14.65
2018-10-16T04:41:23.523Z,14.64
2018-10-16T04:42:33.190Z,14.6
2018-10-16T04:43:42.910Z,14.6
2018-10-16T04:44:53.508Z,14.6
2018-10-16T04:46:03.529Z,14.68
2018-10-16T04:47:13.145Z,14.62
2018-10-16T04:48:22.780Z,14.61
2018-10-16T04:49:32.128Z,14.65
2018-10-16T04:50:42.029Z,14.57
2018-10-16T04:51:51.922Z,14.7
2018-10-16T04:53:02.094Z,14.68
2018-10-16T04:54:11.994Z,14.64
2018-10-16T04:55:22.553Z,14.6
2018-10-16T04:56:31.896Z,14.65
2018-10-16T04:57:41.789Z,14.65
2018-10-16T04:58:51.406Z,14.64
2018-10-16T05:00:01.579Z,14.61
2018-10-16T05:01:11.193Z,14.61
2018-10-16T05:02:21.134Z,14.72
2018-10-16T05:03:30.752Z,14.75
2018-10-16T05:04:40.912Z,14.62
2018-10-16T05:05:50.532Z,14.62
2018-10-16T05:07:00.423Z,14.64
2018-10-16T05:08:10.634Z,14.72
2018-10-16T05:09:20.802Z,14.61
2018-10-16T05:10:30.163Z,14.61
2018-10-16T05:11:39.776Z,14.73
2018-10-16T05:12:49.940Z,14.62
2018-10-16T05:13:59.947Z,14.58
2018-10-16T05:15:09.562Z,14.61
2018-10-16T05:16:19.204Z,14.52
2018-10-16T05:17:29.374Z,14.64
2018-10-16T05:18:38.718Z,14.64
2018-10-16T05:19:48.599Z,14.64
2018-10-16T05:20:58.491Z,14.6
2018-10-16T05:22:08.663Z,14.61
2018-10-16T05:23:18.285Z,14.57
2018-10-16T05:24:28.446Z,14.55
2018-10-16T05:25:37.788Z,14.65
2018-10-16T05:26:47.741Z,14.62
2018-10-16T05:27:57.356Z,14.52
2018-10-16T05:29:07.036Z,14.65
2018-10-16T05:30:16.994Z,14.51
2018-10-16T05:31:27.650Z,14.64
2018-10-16T05:32:37.970Z,14.75
2018-10-16T05:33:47.317Z,14.62
2018-10-16T05:34:57.216Z,14.65
2018-10-16T05:36:07.101Z,14.65
2018-10-16T05:37:17.015Z,14.64
2018-10-16T05:38:27.186Z,14.7
2018-10-16T05:39:36.805Z,14.7
2018-10-16T05:40:46.757Z,14.64
2018-10-16T05:41:56.105Z,14.6
2018-10-16T05:43:05.740Z,14.61
2018-10-16T05:44:15.636Z,14.64
2018-10-16T05:45:25.585Z,14.68
2018-10-16T05:46:35.477Z,14.64
2018-10-16T05:47:45.377Z,14.65
2018-10-16T05:48:55.001Z,14.6
2018-10-16T05:50:04.930Z,14.77
2018-10-16T05:51:14.825Z,14.72
2018-10-16T05:52:24.721Z,14.65
2018-10-16T05:53:34.892Z,14.65
2018-10-16T05:54:45.073Z,14.6
2018-10-16T05:55:55.243Z,14.7
2018-10-16T05:57:05.150Z,14.72
2018-10-16T05:58:15.041Z,14.72
2018-10-16T05:59:24.942Z,14.69
2018-10-16T06:00:35.119Z,14.73
2018-10-16T06:01:45.298Z,14.61
2018-10-16T06:02:55.202Z,14.77
2018-10-16T06:04:05.102Z,14.65
2018-10-16T06:05:14.997Z,14.77
2018-10-16T06:06:24.626Z,14.65
2018-10-16T06:07:34.534Z,14.8
2018-10-16T06:08:44.428Z,14.77
2018-10-16T06:09:54.050Z,14.86
2018-10-16T06:11:03.796Z,14.77
2018-10-16T06:12:13.868Z,14.7
2018-10-16T06:13:24.088Z,14.81
2018-10-16T06:14:33.983Z,14.75
2018-10-16T06:15:43.878Z,14.8
2018-10-16T06:16:53.828Z,14.78
2018-10-16T06:18:04.017Z,14.78
2018-10-16T06:19:14.200Z,14.81
2018-10-16T06:20:24.097Z,14.75
2018-10-16T06:21:34.271Z,14.72
2018-10-16T06:22:43.891Z,14.8
2018-10-16T06:23:53.794Z,14.8
2018-10-16T06:25:03.413Z,14.81
2018-10-16T06:26:13.310Z,14.78
2018-10-16T06:27:23.033Z,14.77
2018-10-16T06:28:32.931Z,14.84
2018-10-16T06:29:43.095Z,14.84
2018-10-16T06:30:52.722Z,14.83
2018-10-16T06:32:02.609Z,14.89
2018-10-16T06:33:12.825Z,14.81
2018-10-16T06:34:22.787Z,14.89
2018-10-16T06:35:32.410Z,14.89
2018-10-16T06:36:42.019Z,14.92
2018-10-16T06:37:52.209Z,14.95
2018-10-16T06:39:02.108Z,14.92
2018-10-16T06:40:12.271Z,14.95
2018-10-16T06:41:22.916Z,14.98
2018-10-16T06:42:33.240Z,15.02
2018-10-16T06:43:43.496Z,15.01
2018-10-16T06:44:53.077Z,15.01
2018-10-16T06:46:02.983Z,15.06
2018-10-16T06:47:12.933Z,15.02
2018-10-16T06:48:24.523Z,15.06
2018-10-16T06:49:35.729Z,15.03
2018-10-16T06:50:45.629Z,15.14
2018-10-16T06:51:55.529Z,15.19
2018-10-16T06:53:05.170Z,15.14
2018-10-16T06:54:15.286Z,15.23
2018-10-16T06:55:25.051Z,15.16
2018-10-16T06:56:35.221Z,15.27
2018-10-16T06:57:44.292Z,15.28
2018-10-16T06:58:54.193Z,15.29
2018-10-16T07:00:04.236Z,15.23
2018-10-16T07:01:14.302Z,15.29
2018-10-16T07:02:24.214Z,15.19
2018-10-16T07:03:34.114Z,15.25
2018-10-16T07:04:44.056Z,15.29
2018-10-16T07:05:53.951Z,15.28
2018-10-16T07:07:04.635Z,15.34
2018-10-16T07:08:15.205Z,15.36
2018-10-16T07:09:25.384Z,15.41
2018-10-16T07:10:34.731Z,15.46
2018-10-16T07:11:44.626Z,15.36
2018-10-16T07:12:54.805Z,15.56
2018-10-16T07:14:04.707Z,15.51
2018-10-16T07:15:15.025Z,15.56
2018-10-16T07:16:24.910Z,15.54
2018-10-16T07:17:34.804Z,15.57
2018-10-16T07:18:44.701Z,15.57
2018-10-16T07:19:54.054Z,15.57
2018-10-16T07:21:04.130Z,15.59
2018-10-16T07:22:13.744Z,15.68
2018-10-16T07:23:24.125Z,15.68
2018-10-16T07:24:34.688Z,15.72
2018-10-16T07:25:44.579Z,15.69
2018-10-16T07:26:54.761Z,15.71
2018-10-16T07:28:04.110Z,15.75
2018-10-16T07:29:14.014Z,15.78
2018-10-16T07:30:24.194Z,15.82
2018-10-16T07:31:33.823Z,15.83
2018-10-16T07:32:43.449Z,15.87
2018-10-16T07:33:53.355Z,15.93
2018-10-16T07:35:03.248Z,15.86
2018-10-16T07:36:12.871Z,15.97
2018-10-16T07:37:22.785Z,16.01
2018-10-16T07:38:32.669Z,16.02
2018-10-16T07:39:43.111Z,16
2018-10-16T07:40:53.021Z,16
2018-10-16T07:42:03.191Z,16
2018-10-16T07:43:13.381Z,16.02
2018-10-16T07:44:23.548Z,16.14
2018-10-16T07:45:33.450Z,16.17
2018-10-16T07:46:43.630Z,16.21
2018-10-16T07:47:53.817Z,16.09
2018-10-16T07:49:03.714Z,16.27
2018-10-16T07:50:13.386Z,16.25
2018-10-16T07:51:23.344Z,16.27
2018-10-16T07:52:32.974Z,16.31
2018-10-16T07:53:42.941Z,16.28
2018-10-16T07:54:53.119Z,16.35
2018-10-16T07:56:03.016Z,16.33
2018-10-16T07:57:12.796Z,16.3
2018-10-16T07:58:23.019Z,16.34
2018-10-16T07:59:33.209Z,16.38
2018-10-16T08:00:43.107Z,16.41
2018-10-16T08:01:53.024Z,16.38
2018-10-16T08:03:02.916Z,16.38
2018-10-16T08:04:12.814Z,16.41
2018-10-16T08:05:22.706Z,16.41
2018-10-16T08:06:32.339Z,16.41
2018-10-16T08:07:42.233Z,16.41
2018-10-16T08:08:51.858Z,16.38
2018-10-16T08:10:01.755Z,16.49
2018-10-16T08:11:12.070Z,16.45
2018-10-16T08:12:22.036Z,16.49
2018-10-16T08:13:32.211Z,16.53
2018-10-16T08:14:42.377Z,16.5
2018-10-16T08:15:52.278Z,16.48
2018-10-16T08:17:01.640Z,16.46
2018-10-16T08:18:11.640Z,16.41
2018-10-16T08:19:21.594Z,16.5
2018-10-16T08:20:31.214Z,16.48
2018-10-16T08:21:41.109Z,16.63
2018-10-16T08:22:51.284Z,16.6
2018-10-16T08:24:00.917Z,16.64
2018-10-16T08:25:10.816Z,16.52
2018-10-16T08:26:20.998Z,16.58
2018-10-16T08:27:31.175Z,16.66
2018-10-16T08:28:40.805Z,16.75
2018-10-16T08:29:50.704Z,16.71
2018-10-16T08:31:00.657Z,16.75
2018-10-16T08:32:09.729Z,16.82
2018-10-16T08:33:19.650Z,16.75
2018-10-16T08:34:29.273Z,16.76
2018-10-16T08:35:38.902Z,16.75
2018-10-16T08:36:49.608Z,16.75
2018-10-16T08:37:58.838Z,16.71
2018-10-16T08:39:08.190Z,16.75
2018-10-16T08:40:18.143Z,16.91
2018-10-16T08:41:28.046Z,16.91
2018-10-16T08:42:37.937Z,16.85
2018-10-16T08:43:47.624Z,16.96
2018-10-16T08:44:58.145Z,16.96
2018-10-16T08:46:08.363Z,16.96
2018-10-16T08:47:18.383Z,16.88
2018-10-16T08:48:28.738Z,16.88
2018-10-16T08:49:38.629Z,16.93
2018-10-16T08:50:48.256Z,16.88
2018-10-16T08:51:58.169Z,16.93
2018-10-16T08:53:08.113Z,16.94
2018-10-16T08:54:17.457Z,16.93
2018-10-16T08:55:27.077Z,17.04
2018-10-16T08:56:36.425Z,16.94
2018-10-16T08:57:46.335Z,16.96
2018-10-16T08:58:55.957Z,17.03
2018-10-16T09:00:05.852Z,16.98
2018-10-16T09:01:15.842Z,17.06
2018-10-16T09:02:26.016Z,17.15
2018-10-16T09:03:35.360Z,17.18
2018-10-16T09:04:44.714Z,17.07
2018-10-16T09:05:54.334Z,17.18
2018-10-16T09:07:03.958Z,17.21
2018-10-16T09:08:14.136Z,17.14
2018-10-16T09:09:24.036Z,17.18
2018-10-16T09:10:34.202Z,17.26
2018-10-16T09:11:44.378Z,17.34
2018-10-16T09:12:53.989Z,17.36
2018-10-16T09:14:04.575Z,17.33
2018-10-16T09:15:15.088Z,17.43
2018-10-16T09:16:24.713Z,17.49
2018-10-16T09:17:34.326Z,17.58
2018-10-16T09:18:43.945Z,17.56
2018-10-16T09:19:53.569Z,17.52
2018-10-16T09:21:03.193Z,17.58
2018-10-16T09:22:13.088Z,17.66
2018-10-16T09:23:22.997Z,17.72
2018-10-16T09:24:32.649Z,17.72
2018-10-16T09:25:42.484Z,17.68
2018-10-16T09:26:52.665Z,17.72
2018-10-16T09:28:02.288Z,17.87
2018-10-16T09:29:11.915Z,17.92
2018-10-16T09:30:21.804Z,18.02
2018-10-16T09:31:31.427Z,18.11
2018-10-16T09:32:40.785Z,18.07
2018-10-16T09:33:50.968Z,18.17
2018-10-16T09:35:00.319Z,18.21
2018-10-16T09:36:09.671Z,18.21
2018-10-16T09:37:19.848Z,18.25
2018-10-16T09:38:29.826Z,18.18
2018-10-16T09:39:39.448Z,18.18
2018-10-16T09:40:49.073Z,18.26
2018-10-16T09:41:59.008Z,18.32
2018-10-16T09:43:09.177Z,18.45
2018-10-16T09:44:19.077Z,18.39
2018-10-16T09:45:28.706Z,18.55
2018-10-16T09:46:38.041Z,18.48
2018-10-16T09:47:48.217Z,18.55
2018-10-16T09:48:58.110Z,18.58
2018-10-16T09:50:07.467Z,18.57
2018-10-16T09:51:17.368Z,18.63
2018-10-16T09:52:26.990Z,18.63
2018-10-16T09:53:36.935Z,18.66
2018-10-16T09:54:46.845Z,18.67
2018-10-16T09:55:57.021Z,18.75
2018-10-16T09:57:06.919Z,18.75
2018-10-16T09:58:16.865Z,18.84
2018-10-16T09:59:26.746Z,18.84
2018-10-16T10:00:36.710Z,18.91
2018-10-16T10:01:46.630Z,18.94
2018-10-16T10:02:56.528Z,18.95
2018-10-16T10:04:06.414Z,18.92
2018-10-16T10:05:16.310Z,18.99
2018-10-16T10:06:26.204Z,19.06
2018-10-16T10:07:36.381Z,19.07
2018-10-16T10:08:46.006Z,19.14
2018-10-16T10:09:55.627Z,19.22
2018-10-16T10:11:05.837Z,19.21
2018-10-16T10:12:16.339Z,19.25
2018-10-16T10:13:26.232Z,19.18
2018-10-16T10:14:36.129Z,19.29
2018-10-16T10:15:46.066Z,19.23
2018-10-16T10:16:55.691Z,19.31
2018-10-16T10:18:05.586Z,19.36
2018-10-16T10:19:15.488Z,19.36
2018-10-16T10:20:25.386Z,19.41
2018-10-16T10:21:34.728Z,19.46
2018-10-16T10:22:44.627Z,19.44
2018-10-16T10:23:54.254Z,19.54
2018-10-16T10:25:04.227Z,19.61
2018-10-16T10:26:13.872Z,19.63
2018-10-16T10:27:23.219Z,19.55
2018-10-16T10:28:32.839Z,19.55
2018-10-16T10:29:42.934Z,19.66
2018-10-16T10:30:52.859Z,19.68
2018-10-16T10:32:02.204Z,19.65
2018-10-16T10:33:12.098Z,19.77
2018-10-16T10:34:22.273Z,19.87
2018-10-16T10:35:32.340Z,19.87
2018-10-16T10:36:42.856Z,19.88
2018-10-16T10:37:51.929Z,19.96
2018-10-16T10:39:01.820Z,19.88
2018-10-16T10:40:11.169Z,19.88
2018-10-16T10:41:20.791Z,19.88
2018-10-16T10:42:30.694Z,19.98
2018-10-16T10:43:40.600Z,20.01
2018-10-16T10:44:49.673Z,20.08
2018-10-16T10:45:59.885Z,20.13
2018-10-16T10:47:09.239Z,20.1
2018-10-16T10:48:18.865Z,20.11
2018-10-16T10:49:28.771Z,20.14
2018-10-16T10:50:39.982Z,20.24
2018-10-16T10:51:49.452Z,20.23
2018-10-16T10:52:59.615Z,20.2
2018-10-16T10:54:09.520Z,20.21
2018-10-16T10:55:19.414Z,20.2
2018-10-16T10:56:29.712Z,20.32
2018-10-16T10:57:39.977Z,20.35
2018-10-16T10:58:50.151Z,20.29
2018-10-16T11:00:00.321Z,20.33
2018-10-16T11:01:09.946Z,20.32
2018-10-16T11:02:19.845Z,20.39
2018-10-16T11:03:30.497Z,20.42
2018-10-16T11:04:41.392Z,20.5
2018-10-16T11:05:51.564Z,20.58
2018-10-16T11:07:01.195Z,20.67
2018-10-16T11:08:11.381Z,20.55
2018-10-16T11:09:21.164Z,20.62
2018-10-16T11:10:31.071Z,20.64
2018-10-16T11:11:41.251Z,20.72
2018-10-16T11:12:50.605Z,20.73
2018-10-16T11:14:00.234Z,20.77
2018-10-16T11:15:10.444Z,20.7
2018-10-16T11:16:20.553Z,20.85
2018-10-16T11:17:30.465Z,20.8
2018-10-16T11:18:40.371Z,20.79
2018-10-16T11:19:50.541Z,20.74
2018-10-16T11:20:59.994Z,20.88
2018-10-16T11:22:09.699Z,20.77
2018-10-16T11:23:19.594Z,20.91
2018-10-16T11:24:28.951Z,20.89
2018-10-16T11:25:38.027Z,20.91
2018-10-16T11:26:48.199Z,20.95
2018-10-16T11:27:58.482Z,20.91
2018-10-16T11:29:08.661Z,21.01
2018-10-16T11:30:18.484Z,20.97
2018-10-16T11:31:28.643Z,20.92
2018-10-16T11:32:38.534Z,21.04
2018-10-16T11:33:48.161Z,21.04
2018-10-16T11:34:58.339Z,21.01
2018-10-16T11:36:08.505Z,21.07
2018-10-16T11:37:18.129Z,21.04
2018-10-16T11:38:28.055Z,21.01
2018-10-16T11:39:37.944Z,21.06
2018-10-16T11:40:47.844Z,21.03
2018-10-16T11:41:57.741Z,20.92
2018-10-16T11:43:06.818Z,21.07
2018-10-16T11:44:16.722Z,21.04
2018-10-16T11:45:26.626Z,21.13
2018-10-16T11:46:36.882Z,21.13
2018-10-16T11:47:47.117Z,21.14
2018-10-16T11:48:57.017Z,21.19
2018-10-16T11:50:07.181Z,21.29
2018-10-16T11:51:17.738Z,21.31
2018-10-16T11:52:27.515Z,21.31
2018-10-16T11:53:37.701Z,21.35
2018-10-16T11:54:47.597Z,21.27
2018-10-16T11:55:57.884Z,21.31
2018-10-16T11:57:07.961Z,21.32
2018-10-16T11:58:17.865Z,21.37
2018-10-16T11:59:27.492Z,21.43
2018-10-16T12:00:37.113Z,21.58
2018-10-16T12:01:46.195Z,21.68
2018-10-16T12:02:55.889Z,21.72
2018-10-16T12:04:05.238Z,21.74
2018-10-16T12:05:15.150Z,21.8
2018-10-16T12:06:25.057Z,21.77
2018-10-16T12:07:34.680Z,21.86
2018-10-16T12:08:44.577Z,21.99
2018-10-16T12:09:54.758Z,21.98
2018-10-16T12:11:04.812Z,21.98
2018-10-16T12:12:15.248Z,22
2018-10-16T12:13:24.870Z,22.1
2018-10-16T12:14:34.221Z,22.06
2018-10-16T12:15:44.398Z,22.09
2018-10-16T12:16:54.364Z,21.99
2018-10-16T12:18:04.382Z,22.02
2018-10-16T12:19:14.449Z,21.98
2018-10-16T12:20:24.287Z,22.02
2018-10-16T12:21:33.639Z,22.07
2018-10-16T12:22:43.543Z,22.09
2018-10-16T12:23:53.822Z,22.09
2018-10-16T12:25:03.894Z,21.98
2018-10-16T12:26:13.724Z,22
2018-10-16T12:27:23.902Z,22.06
2018-10-16T12:28:34.076Z,22.06
2018-10-16T12:29:43.979Z,22
2018-10-16T12:30:53.941Z,22
2018-10-16T12:32:04.114Z,21.92
2018-10-16T12:33:14.542Z,22
2018-10-16T12:34:24.068Z,21.92
2018-10-16T12:35:33.978Z,21.99
2018-10-16T12:36:44.156Z,22.02
2018-10-16T12:37:54.106Z,21.96
2018-10-16T12:39:03.906Z,21.99
2018-10-16T12:40:13.549Z,21.98
2018-10-16T12:41:24.132Z,21.9
2018-10-16T12:42:33.808Z,21.94
2018-10-16T12:43:44.014Z,21.94
2018-10-16T12:44:54.648Z,21.94
2018-10-16T12:46:05.065Z,21.96
2018-10-16T12:47:15.782Z,21.91
2018-10-16T12:48:25.104Z,21.9
2018-10-16T12:49:35.049Z,21.88
2018-10-16T12:50:45.215Z,21.92
2018-10-16T12:51:54.583Z,21.96
2018-10-16T12:53:04.884Z,21.94
2018-10-16T12:54:15.672Z,21.88
2018-10-16T12:55:25.860Z,21.86
2018-10-16T12:56:35.495Z,21.96
2018-10-16T12:57:45.486Z,21.96
2018-10-16T12:58:54.911Z,21.9
2018-10-16T13:00:05.119Z,21.94
2018-10-16T13:01:15.306Z,21.9
2018-10-16T13:02:25.502Z,21.91
2018-10-16T13:03:35.867Z,22.02
2018-10-16T13:04:46.421Z,22.03
2018-10-16T13:05:56.596Z,22.09
2018-10-16T13:07:05.938Z,22.17
2018-10-16T13:08:16.025Z,22.12
2018-10-16T13:09:26.268Z,22.18
2018-10-16T13:10:36.451Z,22.21
2018-10-16T13:11:46.646Z,22.21
2018-10-16T13:12:56.027Z,22.18
2018-10-16T13:14:06.031Z,22.2
2018-10-16T13:15:16.475Z,22.24
2018-10-16T13:16:26.382Z,22.21
2018-10-16T13:17:36.614Z,22.3
2018-10-16T13:18:45.969Z,22.31
2018-10-16T13:19:56.340Z,22.33
2018-10-16T13:21:06.041Z,22.4
2018-10-16T13:22:16.101Z,22.42
2018-10-16T13:23:25.896Z,22.47
2018-10-16T13:24:35.565Z,22.49
2018-10-16T13:25:45.189Z,22.43
2018-10-16T13:26:55.373Z,22.46
2018-10-16T13:28:05.392Z,22.55
2018-10-16T13:29:15.931Z,22.54
2018-10-16T13:30:26.449Z,22.6
2018-10-16T13:31:36.079Z,22.62
2018-10-16T13:32:45.706Z,22.65
2018-10-16T13:33:55.937Z,22.55
2018-10-16T13:35:06.138Z,22.64
2018-10-16T13:36:16.272Z,22.64
2018-10-16T13:37:25.620Z,22.64
2018-10-16T13:38:35.803Z,22.58
2018-10-16T13:39:45.711Z,22.61
2018-10-16T13:40:55.064Z,22.64
2018-10-16T13:42:04.964Z,22.61
2018-10-16T13:43:14.862Z,22.62
2018-10-16T13:44:24.486Z,22.62
2018-10-16T13:45:34.381Z,22.72
2018-10-16T13:46:44.573Z,22.68
2018-10-16T13:47:54.791Z,22.68
2018-10-16T13:49:04.690Z,22.68
2018-10-16T13:50:15.271Z,22.77
2018-10-16T13:51:25.509Z,22.72
2018-10-16T13:52:35.683Z,22.79
2018-10-16T13:53:45.639Z,22.68
2018-10-16T13:54:55.279Z,22.79
2018-10-16T13:56:05.584Z,22.73
2018-10-16T13:57:16.022Z,22.75
2018-10-16T13:58:25.643Z,22.8
2018-10-16T13:59:35.273Z,22.76
2018-10-16T14:00:45.177Z,22.72
2018-10-16T14:01:54.882Z,22.82
2018-10-16T14:03:04.890Z,22.76
2018-10-16T14:04:14.779Z,22.88
2018-10-16T14:05:24.080Z,22.88
2018-10-16T14:06:33.977Z,22.82
2018-10-16T14:07:43.882Z,23
2018-10-16T14:08:53.507Z,23.02
2018-10-16T14:10:03.896Z,23.02
2018-10-16T14:11:13.928Z,23.02
2018-10-16T14:12:23.831Z,23.02
2018-10-16T14:13:33.456Z,23
2018-10-16T14:14:43.359Z,23.02
2018-10-16T14:15:53.292Z,23.02
2018-10-16T14:17:03.689Z,22.98
2018-10-16T14:18:13.859Z,23
2018-10-16T14:19:24.034Z,23.05
2018-10-16T14:20:33.664Z,23.13
2018-10-16T14:21:43.840Z,23.09
2018-10-16T14:22:53.467Z,23.07
2018-10-16T14:24:03.095Z,23.1
2018-10-16T14:25:13.277Z,23.02
2018-10-16T14:26:23.265Z,23.05
2018-10-16T14:27:33.006Z,23.04
2018-10-16T14:28:42.636Z,23.1
2018-10-16T14:29:52.535Z,23.07
2018-10-16T14:31:02.706Z,23.07
2018-10-16T14:32:12.747Z,23.07
2018-10-16T14:33:23.381Z,23.05
2018-10-16T14:34:34.088Z,23.01
2018-10-16T14:35:44.361Z,23.01
2018-10-16T14:36:54.063Z,23.02
2018-10-16T14:38:04.111Z,23.07
2018-10-16T14:39:14.062Z,23.04
2018-10-16T14:40:23.876Z,23.12
2018-10-16T14:41:33.944Z,23.05
2018-10-16T14:42:43.838Z,23.09
2018-10-16T14:43:53.747Z,23.12
2018-10-16T14:45:04.030Z,23.12
2018-10-16T14:46:14.591Z,23.12
2018-10-16T14:47:24.185Z,23.09
2018-10-16T14:48:34.094Z,23.1
2018-10-16T14:49:43.994Z,23.12
2018-10-16T14:50:53.626Z,23.12
2018-10-16T14:52:03.740Z,23.09
2018-10-16T14:53:14.172Z,23.04
2018-10-16T14:54:24.354Z,23.12
2018-10-16T14:55:33.985Z,23.04
2018-10-16T14:56:43.622Z,23.04
2018-10-16T14:57:53.182Z,23.09
2018-10-16T14:59:02.809Z,23.01
2018-10-16T15:00:12.706Z,23.01
2018-10-16T15:01:22.333Z,22.94
2018-10-16T15:02:32.235Z,23.02
2018-10-16T15:03:42.175Z,22.97
2018-10-16T15:04:52.397Z,22.94
2018-10-16T15:06:02.578Z,22.9